Time;durP1;ratioP1;P1;durP2;ratioP2;P2;SDS_P1;SDS_P2;PMS_P1;PMS_P2;Temp;Humidity;BMP_temperature;BMP_pressure;BME280_temperature;BME280_humidity;BME280_pressure;Samples;Min_cycle;Max_cycle;Signal;HPM_P1;HPM_P2
2021/08/16 00:00:35;;;;;;;4.75;4.35;;;22.90;99.90;;;;;;5050284;28;20212;-70
2021/08/16 00:03:03;;;;;;;4.30;3.90;;;23.00;99.90;;;;;;5050175;28;20313;-70
2021/08/16 00:05:29;;;;;;;5.13;4.70;;;22.90;99.90;;;;;;5050342;28;20227;-71
2021/08/16 00:07:56;;;;;;;6.20;4.65;;;22.90;99.90;;;;;;5050265;28;20215;-70
2021/08/16 00:10:23;;;;;;;4.18;3.78;;;22.90;99.90;;;;;;5050381;28;20212;-70
2021/08/16 00:12:49;;;;;;;4.93;4.40;;;22.80;99.90;;;;;;5050336;28;20240;-70
2021/08/16 00:15:16;;;;;;;4.97;4.57;;;22.90;99.90;;;;;;5039306;28;20789;-70
2021/08/16 00:17:44;;;;;;;5.65;4.18;;;22.80;99.90;;;;;;5030359;28;20205;-70
2021/08/16 00:20:12;;;;;;;6.38;4.35;;;22.80;99.90;;;;;;5029993;28;20205;-70
2021/08/16 00:22:39;;;;;;;4.85;4.45;;;22.80;99.90;;;;;;5030117;28;20213;-70
2021/08/16 00:25:09;;;;;;;5.28;3.83;;;22.80;99.90;;;;;;5029930;28;20557;-70
2021/08/16 00:27:36;;;;;;;4.93;4.32;;;22.80;99.90;;;;;;5029574;28;20651;-70
2021/08/16 00:30:03;;;;;;;4.75;4.32;;;22.80;99.90;;;;;;5030033;28;20227;-70
2021/08/16 00:32:29;;;;;;;4.75;4.35;;;22.70;99.90;;;;;;5029993;28;20288;-70
2021/08/16 00:34:56;;;;;;;4.28;3.88;;;22.70;99.90;;;;;;5029885;28;20236;-70
2021/08/16 00:37:24;;;;;;;5.20;4.25;;;22.60;99.90;;;;;;5029442;28;20209;-70
2021/08/16 00:39:51;;;;;;;4.85;4.22;;;22.70;99.90;;;;;;5029730;28;20351;-70
2021/08/16 00:42:18;;;;;;;4.30;3.90;;;22.60;99.90;;;;;;5030077;28;20291;-70
2021/08/16 00:44:45;;;;;;;4.80;4.28;;;22.60;99.90;;;;;;5029481;28;20714;-69
2021/08/16 00:47:12;;;;;;;4.38;3.92;;;22.60;99.90;;;;;;5029477;28;20228;-69
2021/08/16 00:49:38;;;;;;;4.95;4.35;;;22.50;99.90;;;;;;5029590;28;20258;-69
2021/08/16 00:52:06;;;;;;;6.20;3.67;;;22.50;99.90;;;;;;5029672;28;20437;-69
2021/08/16 00:54:34;;;;;;;4.72;3.80;;;22.50;99.90;;;;;;5029015;28;20612;-69
2021/08/16 00:57:03;;;;;;;4.72;4.25;;;22.50;99.90;;;;;;5029593;28;20278;-68
2021/08/16 00:59:30;;;;;;;4.47;4.07;;;22.50;99.90;;;;;;5028873;28;20268;-69
2021/08/16 01:01:57;;;;;;;4.45;4.05;;;22.40;99.90;;;;;;5029128;28;20252;-68
2021/08/16 01:04:25;;;;;;;4.63;4.22;;;22.40;99.90;;;;;;5029212;28;20263;-68
2021/08/16 01:06:51;;;;;;;6.15;4.25;;;22.30;99.90;;;;;;5029473;28;20263;-69
2021/08/16 01:09:18;;;;;;;6.43;4.25;;;22.30;99.90;;;;;;5029197;28;20209;-68
2021/08/16 01:11:48;;;;;;;4.93;3.72;;;22.30;99.90;;;;;;5029149;28;20217;-69
2021/08/16 01:14:15;;;;;;;4.72;4.30;;;22.30;99.90;;;;;;5035107;28;20212;-69
2021/08/16 01:16:42;;;;;;;5.07;4.15;;;22.30;99.90;;;;;;5048731;28;20236;-69
2021/08/16 01:19:09;;;;;;;6.35;4.22;;;22.20;99.90;;;;;;5049017;28;20204;-69
2021/08/16 01:21:35;;;;;;;4.70;4.30;;;22.20;99.90;;;;;;5048725;28;20247;-69
2021/08/16 01:24:02;;;;;;;4.60;4.20;;;22.20;99.90;;;;;;5048962;28;20203;-69
2021/08/16 01:26:33;;;;;;;4.97;3.85;;;22.20;99.90;;;;;;5048893;28;20212;-69
2021/08/16 01:28:59;;;;;;;4.40;3.88;;;22.20;99.90;;;;;;5048688;28;20602;-69
2021/08/16 01:31:26;;;;;;;4.80;4.40;;;22.20;99.90;;;;;;5048693;28;20250;-69
2021/08/16 01:33:53;;;;;;;4.40;4.00;;;22.20;99.90;;;;;;5048649;28;20577;-70
2021/08/16 01:36:19;;;;;;;7.10;4.10;;;22.10;99.90;;;;;;5048690;28;20267;-70
2021/08/16 01:38:46;;;;;;;4.53;4.13;;;21.90;99.90;;;;;;5048598;28;20258;-69
2021/08/16 01:41:12;;;;;;;5.00;4.25;;;21.90;99.90;;;;;;5048857;28;20630;-69
2021/08/16 01:43:40;;;;;;;3.92;3.53;;;21.90;99.90;;;;;;5048533;28;20208;-70
2021/08/16 01:46:07;;;;;;;5.22;3.83;;;21.90;99.90;;;;;;5048559;28;20208;-69
2021/08/16 01:48:34;;;;;;;3.95;3.65;;;22.00;99.90;;;;;;5048098;28;20257;-70
2021/08/16 01:51:00;;;;;;;3.70;3.40;;;22.00;99.90;;;;;;5048282;28;20927;-69
2021/08/16 01:53:27;;;;;;;4.22;3.80;;;22.10;99.90;;;;;;5048377;28;20254;-69
2021/08/16 01:55:54;;;;;;;3.40;3.20;;;22.10;99.90;;;;;;5048391;28;20232;-69
2021/08/16 01:58:20;;;;;;;5.32;3.47;;;22.10;99.90;;;;;;5047991;28;20204;-69
2021/08/16 02:00:48;;;;;;;4.00;3.50;;;22.10;99.90;;;;;;5048070;28;20667;-69
2021/08/16 02:03:15;;;;;;;7.18;3.67;;;22.00;99.90;;;;;;5048015;28;21003;-69
2021/08/16 02:05:42;;;;;;;5.50;3.75;;;22.10;99.90;;;;;;5048188;28;20284;-70
2021/08/16 02:08:09;;;;;;;4.05;3.67;;;22.10;99.90;;;;;;5048455;28;20291;-70
2021/08/16 02:10:36;;;;;;;4.57;3.38;;;22.10;99.90;;;;;;5047704;28;21018;-70
2021/08/16 02:13:03;;;;;;;5.28;3.50;;;22.10;99.90;;;;;;5048044;28;20709;-70
2021/08/16 02:15:29;;;;;;;4.90;3.70;;;22.10;99.90;;;;;;5047957;28;20616;-69
2021/08/16 02:17:57;;;;;;;4.10;3.70;;;22.10;99.90;;;;;;5048145;28;20662;-70
2021/08/16 02:20:24;;;;;;;5.05;3.35;;;22.10;99.90;;;;;;5047900;28;20745;-70
2021/08/16 02:22:51;;;;;;;3.63;3.33;;;22.00;99.90;;;;;;5048327;28;20253;-71
2021/08/16 02:25:17;;;;;;;4.20;3.80;;;21.90;99.90;;;;;;5047897;28;20731;-71
2021/08/16 02:27:46;;;;;;;5.10;3.60;;;21.80;99.90;;;;;;5048108;28;20246;-71
2021/08/16 02:30:14;;;;;;;7.05;3.72;;;21.80;99.90;;;;;;5047863;28;20658;-71
2021/08/16 02:32:41;;;;;;;3.83;3.53;;;21.80;99.90;;;;;;5047964;28;20567;-71
2021/08/16 02:35:10;;;;;;;6.22;3.67;;;21.60;99.90;;;;;;5048007;28;20264;-69
2021/08/16 02:37:37;;;;;;;3.55;3.25;;;21.60;99.90;;;;;;5047922;28;20204;-70
2021/08/16 02:40:05;;;;;;;5.65;3.65;;;21.60;99.90;;;;;;5047494;28;20783;-69
2021/08/16 02:42:31;;;;;;;4.15;3.75;;;21.60;99.90;;;;;;5047644;28;20615;-69
2021/08/16 02:44:58;;;;;;;4.50;4.10;;;21.40;99.90;;;;;;5048076;28;20250;-70
2021/08/16 02:47:26;;;;;;;6.47;3.72;;;21.40;99.90;;;;;;5047981;28;20200;-70
2021/08/16 02:49:53;;;;;;;3.65;3.38;;;21.50;99.90;;;;;;5047780;28;20655;-71
2021/08/16 02:52:21;;;;;;;3.95;3.60;;;21.60;99.90;;;;;;5047749;28;20215;-71
2021/08/16 02:54:49;;;;;;;6.47;3.50;;;21.60;99.90;;;;;;5047526;28;20208;-71
2021/08/16 02:57:16;;;;;;;4.00;3.60;;;21.70;99.90;;;;;;5047783;28;20232;-71
2021/08/16 02:59:43;;;;;;;4.45;3.20;;;21.80;99.90;;;;;;5047363;28;20321;-71
2021/08/16 03:02:10;;;;;;;4.22;3.25;;;21.80;99.90;;;;;;5050148;28;20281;-71
2021/08/16 03:04:36;;;;;;;3.38;3.08;;;21.80;99.90;;;;;;5051202;28;20220;-71
2021/08/16 03:07:03;;;;;;;3.53;3.15;;;21.80;99.90;;;;;;5051313;28;20674;-71
2021/08/16 03:09:32;;;;;;;3.88;3.40;;;21.80;99.90;;;;;;5051817;28;20623;-71
2021/08/16 03:11:59;;;;;;;4.28;3.17;;;21.80;99.90;;;;;;5051482;28;20204;-71
2021/08/16 03:14:26;;;;;;;4.60;3.20;;;21.70;99.90;;;;;;5051376;28;20209;-69
2021/08/16 03:16:52;;;;;;;3.58;3.30;;;21.70;99.90;;;;;;5051365;28;20228;-70
2021/08/16 03:19:19;;;;;;;4.07;3.47;;;21.70;99.90;;;;;;5051461;28;20212;-70
2021/08/16 03:21:46;;;;;;;4.40;3.67;;;21.70;99.90;;;;;;5051272;28;20208;-69
2021/08/16 03:24:12;;;;;;;3.17;2.97;;;21.70;99.90;;;;;;5050845;28;20624;-70
2021/08/16 03:26:40;;;;;;;5.10;3.45;;;21.70;99.90;;;;;;5050914;28;20639;-70
2021/08/16 03:29:07;;;;;;;3.93;3.53;;;21.80;99.90;;;;;;5051144;28;20208;-70
2021/08/16 03:31:33;;;;;;;4.50;3.30;;;21.70;99.90;;;;;;5051159;28;20663;-70
2021/08/16 03:34:03;;;;;;;4.47;3.53;;;21.70;99.90;;;;;;5051244;28;20204;-70
2021/08/16 03:36:29;;;;;;;4.13;3.17;;;21.70;99.90;;;;;;5050715;28;20236;-70
2021/08/16 03:38:56;;;;;;;4.00;3.47;;;21.70;99.90;;;;;;5050521;28;20611;-70
2021/08/16 03:41:22;;;;;;;4.40;3.28;;;21.80;99.90;;;;;;5050932;28;20204;-70
2021/08/16 03:43:51;;;;;;;5.70;3.40;;;21.80;99.90;;;;;;5050788;28;20211;-70
2021/08/16 03:46:18;;;;;;;5.80;3.45;;;21.80;99.90;;;;;;5050911;28;20220;-70
2021/08/16 03:48:44;;;;;;;6.00;3.83;;;21.80;99.90;;;;;;5050577;28;20615;-70
2021/08/16 03:51:12;;;;;;;3.50;3.13;;;21.80;99.90;;;;;;5050923;28;20250;-70
2021/08/16 03:53:39;;;;;;;3.85;3.55;;;21.80;99.90;;;;;;5050190;28;20666;-70
2021/08/16 03:56:06;;;;;;;4.97;3.13;;;21.80;99.90;;;;;;5050449;28;20650;-70
2021/08/16 03:58:33;;;;;;;3.50;3.20;;;21.80;99.90;;;;;;5050344;28;20239;-70
2021/08/16 04:01:01;;;;;;;4.32;3.33;;;21.70;99.90;;;;;;5050353;28;20224;-70
2021/08/16 04:03:29;;;;;;;4.22;3.05;;;21.70;99.90;;;;;;5050519;28;20208;-71
2021/08/16 04:05:55;;;;;;;4.30;3.65;;;21.70;99.90;;;;;;5050442;28;20286;-71
2021/08/16 04:08:22;;;;;;;3.35;3.05;;;21.70;99.90;;;;;;5050434;28;20239;-71
2021/08/16 04:10:49;;;;;;;4.23;3.50;;;21.70;99.90;;;;;;5050215;28;20215;-71
2021/08/16 04:13:15;;;;;;;7.37;3.60;;;21.20;99.90;;;;;;5049700;28;20243;-71
2021/08/16 04:15:42;;;;;;;4.70;3.00;;;21.10;99.90;;;;;;5049899;28;20305;-70
2021/08/16 04:18:10;;;;;;;6.37;3.43;;;21.10;99.90;;;;;;5050101;28;20250;-70
2021/08/16 04:20:36;;;;;;;4.67;3.50;;;21.10;99.70;;;;;;5049965;28;20244;-70
2021/08/16 04:23:03;;;;;;;4.40;3.33;;;21.00;99.80;;;;;;5050157;28;20219;-70
2021/08/16 04:25:30;;;;;;;3.60;3.27;;;21.10;99.80;;;;;;5049860;28;20239;-70
2021/08/16 04:27:56;;;;;;;3.73;3.20;;;20.80;99.90;;;;;;5049988;28;20257;-70
2021/08/16 04:30:23;;;;;;;5.40;3.77;;;20.50;99.90;;;;;;5049989;28;20212;-70
2021/08/16 04:32:50;;;;;;;3.47;3.17;;;20.40;99.90;;;;;;5049807;28;20212;-69
2021/08/16 04:35:19;;;;;;;5.30;3.77;;;20.40;99.90;;;;;;5049755;28;20611;-69
2021/08/16 04:37:45;;;;;;;5.70;3.43;;;20.40;99.90;;;;;;5049567;28;20238;-69
2021/08/16 04:40:13;;;;;;;4.60;3.40;;;20.60;99.90;;;;;;5049684;28;20306;-69
2021/08/16 04:42:40;;;;;;;3.97;3.57;;;20.70;99.90;;;;;;5049332;28;20712;-70
2021/08/16 04:45:10;;;;;;;3.50;3.20;;;20.60;99.90;;;;;;5049701;28;20204;-69
2021/08/16 04:47:37;;;;;;;3.93;3.40;;;20.70;99.90;;;;;;5049402;28;20269;-70
2021/08/16 04:50:04;;;;;;;3.60;3.30;;;20.80;99.90;;;;;;5049605;28;20207;-70
2021/08/16 04:52:32;;;;;;;3.60;3.30;;;20.70;99.90;;;;;;5049428;28;20204;-69
2021/08/16 04:54:58;;;;;;;4.77;3.50;;;20.60;99.90;;;;;;5049286;28;20208;-69
2021/08/16 04:57:30;;;;;;;4.23;3.43;;;20.60;99.90;;;;;;5049145;28;20769;-69
2021/08/16 04:59:57;;;;;;;5.27;3.70;;;20.70;99.90;;;;;;5048715;28;20958;-69
2021/08/16 05:02:24;;;;;;;4.03;3.67;;;20.80;99.90;;;;;;5049111;28;20258;-69
2021/08/16 05:04:54;;;;;;;3.40;2.90;;;20.60;99.90;;;;;;5048623;28;20633;-69
2021/08/16 05:07:21;;;;;;;3.40;3.20;;;20.70;99.90;;;;;;5049189;28;20206;-69
2021/08/16 05:09:50;;;;;;;4.27;3.30;;;20.60;99.90;;;;;;5048779;28;20257;-69
2021/08/16 05:12:16;;;;;;;5.40;3.27;;;20.40;99.90;;;;;;5049054;28;20368;-69
2021/08/16 05:14:43;;;;;;;5.60;2.93;;;20.40;99.90;;;;;;5049101;28;20216;-69
2021/08/16 05:17:10;;;;;;;4.13;3.30;;;20.30;99.90;;;;;;5049022;28;20223;-70
2021/08/16 05:19:38;;;;;;;3.67;3.37;;;20.30;99.90;;;;;;5048795;28;20208;-69
2021/08/16 05:22:07;;;;;;;5.47;3.63;;;20.30;99.90;;;;;;5048644;28;20220;-69
2021/08/16 05:24:34;;;;;;;6.57;3.50;;;20.20;99.90;;;;;;5047788;28;20204;-69
2021/08/16 05:27:03;;;;;;;4.03;3.30;;;20.30;99.90;;;;;;5048804;28;20254;-70
2021/08/16 05:29:31;;;;;;;5.67;3.27;;;20.30;99.90;;;;;;5048637;28;20208;-70
2021/08/16 05:31:58;;;;;;;5.27;3.23;;;20.30;99.90;;;;;;5048262;28;20208;-70
2021/08/16 05:34:24;;;;;;;5.77;3.80;;;20.40;99.90;;;;;;5048711;28;20258;-69
2021/08/16 05:36:51;;;;;;;4.73;3.30;;;20.40;99.90;;;;;;5048042;28;20722;-69
2021/08/16 05:39:18;;;;;;;5.70;3.63;;;20.40;99.90;;;;;;5048518;28;20223;-69
2021/08/16 05:41:44;;;;;;;5.50;3.30;;;20.40;99.90;;;;;;5048427;28;20204;-70
2021/08/16 05:44:12;;;;;;;4.00;3.50;;;20.30;99.90;;;;;;5048588;28;20204;-69
2021/08/16 05:46:39;;;;;;;3.33;3.10;;;20.30;99.90;;;;;;5049285;28;20239;-71
2021/08/16 05:49:06;;;;;;;5.33;3.50;;;20.40;99.90;;;;;;5048486;28;20636;-70
2021/08/16 05:51:33;;;;;;;4.97;3.20;;;20.40;99.90;;;;;;5048511;28;20273;-71
2021/08/16 05:54:03;;;;;;;4.97;3.70;;;20.50;99.90;;;;;;5048380;28;20212;-70
2021/08/16 05:56:30;;;;;;;3.43;3.13;;;20.50;99.90;;;;;;5048424;28;20226;-70
2021/08/16 05:58:56;;;;;;;3.57;3.30;;;20.60;99.90;;;;;;5047999;28;20267;-70
2021/08/16 06:01:24;;;;;;;5.83;3.60;;;20.80;99.90;;;;;;5048387;28;20772;-70
2021/08/16 06:03:51;;;;;;;4.30;3.20;;;20.80;99.90;;;;;;5048131;28;20247;-69
2021/08/16 06:06:18;;;;;;;4.60;3.63;;;20.70;99.90;;;;;;5048329;28;20216;-71
2021/08/16 06:08:44;;;;;;;3.50;3.10;;;20.80;99.90;;;;;;5048164;28;20200;-71
2021/08/16 06:11:11;;;;;;;4.10;3.70;;;20.60;99.90;;;;;;5048295;28;20234;-71
2021/08/16 06:13:37;;;;;;;5.53;3.33;;;20.40;99.90;;;;;;5048089;28;20207;-70
2021/08/16 06:16:05;;;;;;;3.33;3.03;;;20.30;99.90;;;;;;5048006;28;20204;-70
2021/08/16 06:18:33;;;;;;;5.00;3.50;;;20.30;99.90;;;;;;5048127;28;20204;-70
2021/08/16 06:20:59;;;;;;;4.20;3.43;;;20.20;99.90;;;;;;5047268;28;20212;-70
2021/08/16 06:23:28;;;;;;;3.97;3.57;;;20.00;99.90;;;;;;5048101;28;20242;-69
2021/08/16 06:25:55;;;;;;;4.97;3.37;;;20.00;99.90;;;;;;5047961;28;20204;-70
2021/08/16 06:28:21;;;;;;;3.90;3.10;;;20.10;99.90;;;;;;5048156;28;20615;-69
2021/08/16 06:30:48;;;;;;;4.43;3.53;;;20.30;99.90;;;;;;5048021;28;20208;-70
2021/08/16 06:33:14;;;;;;;5.07;3.50;;;20.30;99.90;;;;;;5047730;28;20551;-70
2021/08/16 06:35:42;;;;;;;5.00;3.40;;;20.30;99.90;;;;;;5049713;28;20208;-70
2021/08/16 06:38:20;;;;;;;3.70;3.27;;;20.30;99.90;;;;;;5051912;28;20232;-70
2021/08/16 06:40:47;;;;;;;7.07;3.47;;;20.40;99.90;;;;;;5051706;28;20314;-70
2021/08/16 06:43:13;;;;;;;4.10;3.30;;;20.40;99.90;;;;;;5051097;28;20917;-70
2021/08/16 06:45:40;;;;;;;4.20;3.37;;;20.40;99.90;;;;;;5051401;28;20212;-70
2021/08/16 06:48:07;;;;;;;3.40;3.10;;;20.40;99.90;;;;;;5051559;28;20216;-70
2021/08/16 06:50:34;;;;;;;3.57;3.30;;;20.30;99.90;;;;;;5051306;28;20210;-70
2021/08/16 06:53:04;;;;;;;4.93;3.37;;;20.40;99.90;;;;;;5051618;28;20204;-70
2021/08/16 06:55:31;;;;;;;10.53;3.50;;;20.30;99.90;;;;;;5051939;28;20208;-70
2021/08/16 06:57:58;;;;;;;6.73;3.60;;;20.40;99.90;;;;;;5051536;28;20254;-70
2021/08/16 07:00:25;;;;;;;5.23;3.63;;;20.50;99.90;;;;;;5051250;28;20232;-70
2021/08/16 07:02:51;;;;;;;6.33;3.87;;;20.50;99.90;;;;;;5051518;28;20281;-70
2021/08/16 07:05:18;;;;;;;5.13;3.57;;;20.60;99.90;;;;;;5051572;28;20232;-70
2021/08/16 07:07:46;;;;;;;5.80;3.60;;;20.60;99.90;;;;;;5051321;28;20208;-70
2021/08/16 07:10:14;;;;;;;4.30;3.50;;;20.60;99.90;;;;;;5051602;28;20208;-70
2021/08/16 07:12:41;;;;;;;6.60;3.70;;;20.60;99.90;;;;;;5051249;28;20255;-70
2021/08/16 07:15:08;;;;;;;5.63;3.70;;;20.60;99.90;;;;;;5051442;28;20266;-70
2021/08/16 07:17:35;;;;;;;4.90;3.67;;;20.60;99.90;;;;;;5051371;28;20239;-70
2021/08/16 07:20:01;;;;;;;5.40;3.70;;;20.70;99.90;;;;;;5051130;28;20218;-70
2021/08/16 07:22:28;;;;;;;5.40;3.60;;;20.80;99.90;;;;;;5051271;28;20212;-70
2021/08/16 07:24:55;;;;;;;5.20;3.93;;;20.90;99.90;;;;;;5051086;28;20216;-70
2021/08/16 07:27:23;;;;;;;4.70;3.70;;;20.90;99.90;;;;;;5050843;28;20675;-70
2021/08/16 07:29:49;;;;;;;6.27;3.93;;;20.90;99.90;;;;;;5051083;28;20204;-70
2021/08/16 07:32:16;;;;;;;5.93;3.50;;;20.70;99.90;;;;;;5051160;28;20208;-69
2021/08/16 07:34:42;;;;;;;7.10;3.63;;;20.60;99.90;;;;;;5051040;28;20212;-70
2021/08/16 07:37:11;;;;;;;5.73;3.60;;;20.50;99.90;;;;;;5050783;28;20220;-70
2021/08/16 07:39:38;;;;;;;4.57;3.90;;;20.50;99.90;;;;;;5050729;28;20630;-70
2021/08/16 07:42:05;;;;;;;4.37;3.43;;;20.60;99.90;;;;;;5050658;28;20678;-70
2021/08/16 07:44:34;;;;;;;4.57;4.17;;;20.60;99.90;;;;;;5050736;28;20573;-70
2021/08/16 07:47:00;;;;;;;5.50;4.10;;;20.80;99.90;;;;;;5049781;28;20215;-69
2021/08/16 07:49:30;;;;;;;7.00;5.13;;;20.80;99.90;;;;;;5050703;28;20616;-69
2021/08/16 07:51:56;;;;;;;5.57;4.37;;;20.80;99.90;;;;;;5047268;28;20208;-68
2021/08/16 07:54:23;;;;;;;5.27;4.47;;;20.90;99.90;;;;;;5040911;28;20200;-68
2021/08/16 07:56:50;;;;;;;5.83;4.93;;;21.00;99.90;;;;;;5038385;28;20290;-69
2021/08/16 07:59:17;;;;;;;4.77;4.33;;;21.10;99.90;;;;;;5041053;28;20258;-69
2021/08/16 08:01:49;;;;;;;5.57;4.77;;;21.20;99.90;;;;;;5037686;28;20761;-69
2021/08/16 08:04:15;;;;;;;5.13;4.63;;;21.20;99.90;;;;;;5044826;28;20227;-70
2021/08/16 08:06:42;;;;;;;6.87;5.20;;;21.30;99.90;;;;;;5039004;28;20200;-70
2021/08/16 08:09:09;;;;;;;4.97;4.57;;;21.20;99.90;;;;;;5036007;28;20209;-69
2021/08/16 08:11:35;;;;;;;6.83;4.93;;;21.30;99.90;;;;;;5046656;28;20208;-69
2021/08/16 08:14:02;;;;;;;5.77;5.20;;;21.40;99.90;;;;;;5043320;28;20208;-70
2021/08/16 08:16:28;;;;;;;5.33;4.83;;;21.30;99.90;;;;;;5032866;28;20247;-70
2021/08/16 08:18:56;;;;;;;5.40;5.00;;;21.30;99.90;;;;;;5026380;28;20726;-69
2021/08/16 08:21:23;;;;;;;5.47;4.97;;;21.40;99.90;;;;;;5026993;28;20268;-70
2021/08/16 08:23:51;;;;;;;6.83;4.73;;;21.50;99.90;;;;;;5026437;28;20626;-70
2021/08/16 08:26:18;;;;;;;5.20;4.10;;;21.70;99.90;;;;;;5026238;28;20209;-70
2021/08/16 08:28:44;;;;;;;6.00;4.20;;;21.70;99.90;;;;;;5026752;28;20213;-70
2021/08/16 08:31:11;;;;;;;6.33;4.60;;;21.80;99.90;;;;;;5028948;28;20637;-73
2021/08/16 08:33:38;;;;;;;4.97;4.30;;;21.80;99.70;;;;;;5026450;28;20294;-73
2021/08/16 08:36:06;;;;;;;5.17;4.37;;;21.80;99.40;;;;;;5025906;28;20671;-70
2021/08/16 08:38:33;;;;;;;4.40;4.10;;;21.80;99.40;;;;;;5028578;28;20645;-70
2021/08/16 08:41:03;;;;;;;4.60;4.20;;;22.00;99.00;;;;;;5026065;28;20729;-71
2021/08/16 08:43:31;;;;;;;4.68;4.18;;;22.00;99.20;;;;;;5026424;28;20298;-74
2021/08/16 08:45:58;;;;;;;6.37;4.17;;;22.20;99.40;;;;;;5033195;28;20228;-74
2021/08/16 08:48:25;;;;;;;4.60;4.20;;;22.10;98.70;;;;;;5044556;28;20290;-74
2021/08/16 08:50:53;;;;;;;4.57;4.17;;;22.20;98.90;;;;;;5026007;28;20502;-72
2021/08/16 08:53:21;;;;;;;4.30;3.80;;;22.20;98.30;;;;;;5027011;28;20250;-73
2021/08/16 08:55:48;;;;;;;7.22;4.22;;;22.20;98.90;;;;;;5034827;28;20203;-73
2021/08/16 08:58:15;;;;;;;4.38;3.97;;;22.20;98.60;;;;;;5036014;28;20275;-73
2021/08/16 09:00:41;;;;;;;4.65;4.13;;;22.10;98.90;;;;;;5037312;28;20229;-72
2021/08/16 09:03:09;;;;;;;5.07;3.53;;;21.90;98.30;;;;;;5034518;28;20224;-72
2021/08/16 09:05:47;;;;;;;4.20;3.80;;;21.80;98.00;;;;;;5031777;28;20659;-72
2021/08/16 09:08:23;;;;;;;4.00;3.70;;;21.70;97.80;;;;;;5027182;28;20202;-71
2021/08/16 09:10:50;;;;;;;4.10;3.70;;;21.80;98.30;;;;;;5029182;28;20713;-71
2021/08/16 09:13:25;;;;;;;9.87;3.80;;;21.80;97.70;;;;;;5033894;28;20200;-72
2021/08/16 09:15:54;;;;;;;6.10;3.77;;;22.00;98.00;;;;;;5028929;28;20986;-72
2021/08/16 09:18:30;;;;;;;3.13;2.93;;;22.00;97.50;;;;;;5032849;28;20239;-71
2021/08/16 09:20:58;;;;;;;4.03;3.63;;;22.20;97.80;;;;;;5033409;28;20262;-71
2021/08/16 09:23:26;;;;;;;3.80;3.50;;;22.30;97.90;;;;;;5033218;28;20209;-71
2021/08/16 09:25:55;;;;;;;3.40;2.93;;;22.30;97.40;;;;;;5036034;28;20196;-73
2021/08/16 09:28:29;;;;;;;3.93;3.10;;;22.30;97.50;;;;;;5045058;28;20463;-74
2021/08/16 09:30:57;;;;;;;3.93;3.27;;;22.40;97.50;;;;;;5044676;28;20203;-74
2021/08/16 09:33:24;;;;;;;3.38;3.08;;;22.20;97.30;;;;;;5044534;28;20203;-74
2021/08/16 09:35:55;;;;;;;3.97;3.57;;;22.20;97.50;;;;;;5044690;28;20429;-73
2021/08/16 09:38:38;;;;;;;3.70;3.10;;;22.40;96.90;;;;;;5044799;28;20328;-74
2021/08/16 09:41:06;;;;;;;3.55;3.25;;;22.30;96.90;;;;;;5041120;28;20250;-74
2021/08/16 09:43:34;;;;;;;3.33;3.03;;;22.30;96.70;;;;;;5024862;28;20208;-74
2021/08/16 09:46:02;;;;;;;5.43;3.37;;;22.50;96.70;;;;;;5025618;28;20236;-74
2021/08/16 09:48:29;;;;;;;3.90;3.03;;;22.50;96.80;;;;;;5034096;28;20230;-74
2021/08/16 09:50:56;;;;;;;6.17;3.10;;;22.40;96.50;;;;;;5035195;28;20323;-74
2021/08/16 09:53:25;;;;;;;6.83;3.10;;;22.20;96.70;;;;;;5032580;28;20291;-74
2021/08/16 09:55:57;;;;;;;4.10;3.03;;;22.30;96.40;;;;;;5037146;28;20570;-72
2021/08/16 09:58:24;;;;;;;3.23;2.93;;;22.40;96.20;;;;;;5044273;28;20228;-72
2021/08/16 10:00:52;;;;;;;3.93;3.20;;;22.40;96.10;;;;;;5044109;28;20377;-72
2021/08/16 10:03:19;;;;;;;3.85;2.90;;;22.60;96.80;;;;;;5044240;28;20228;-72
2021/08/16 10:05:47;;;;;;;4.25;3.05;;;22.90;95.90;;;;;;5044421;28;20719;-72
2021/08/16 10:08:20;;;;;;;4.18;2.85;;;23.10;95.40;;;;;;5044865;28;20212;-72
2021/08/16 10:10:48;;;;;;;5.68;3.08;;;23.20;95.70;;;;;;5030093;28;20262;-72
2021/08/16 10:13:20;;;;;;;3.35;3.05;;;23.00;94.80;;;;;;5027739;28;20205;-72
2021/08/16 10:15:51;;;;;;;6.40;5.45;;;22.70;94.90;;;;;;5026147;28;20678;-71
2021/08/16 10:18:20;;;;;;;5.63;4.50;;;22.70;95.20;;;;;;5026755;28;20290;-72
2021/08/16 10:20:48;;;;;;;3.33;3.03;;;22.60;94.90;;;;;;5026518;28;20775;-71
2021/08/16 10:23:19;;;;;;;7.00;2.92;;;22.80;94.60;;;;;;5046129;28;20633;-72
2021/08/16 10:25:47;;;;;;;3.13;2.85;;;23.10;94.50;;;;;;5037346;28;20686;-71
2021/08/16 10:28:26;;;;;;;2.65;2.45;;;23.10;93.80;;;;;;5027173;28;20205;-72
2021/08/16 10:30:53;;;;;;;2.75;2.55;;;23.20;94.60;;;;;;5027847;28;20326;-72
2021/08/16 10:33:20;;;;;;;3.78;2.80;;;23.50;94.10;;;;;;5027503;28;20209;-72
2021/08/16 10:35:47;;;;;;;3.95;2.88;;;23.60;94.00;;;;;;5027720;28;20287;-73
2021/08/16 10:38:18;;;;;;;2.97;2.38;;;23.70;93.30;;;;;;5027389;28;20232;-72
2021/08/16 10:40:46;;;;;;;4.78;2.60;;;23.70;94.10;;;;;;5027349;28;20220;-72
2021/08/16 10:43:14;;;;;;;3.13;2.83;;;23.70;93.90;;;;;;5032870;28;20663;-71
2021/08/16 10:45:48;;;;;;;3.13;2.60;;;23.80;93.90;;;;;;5025493;28;20219;-71
2021/08/16 10:48:23;;;;;;;3.85;2.90;;;23.80;93.70;;;;;;5025667;28;20207;-71
2021/08/16 10:51:02;;;;;;;3.10;2.70;;;23.80;93.80;;;;;;5027027;28;20717;-71
2021/08/16 10:53:28;;;;;;;2.83;2.55;;;24.00;93.60;;;;;;5035841;28;20220;-71
2021/08/16 10:55:55;;;;;;;2.60;2.40;;;24.00;93.50;;;;;;5033169;28;20228;-70
2021/08/16 10:58:22;;;;;;;2.92;2.72;;;24.30;93.70;;;;;;5027557;28;20232;-69
2021/08/16 11:00:50;;;;;;;3.05;2.70;;;24.40;93.00;;;;;;5027661;28;20299;-69
2021/08/16 11:03:22;;;;;;;3.40;2.70;;;24.40;93.10;;;;;;5040509;28;20224;-69
2021/08/16 11:05:49;;;;;;;2.80;2.58;;;24.60;93.60;;;;;;5046349;28;20652;-69
2021/08/16 11:08:16;;;;;;;4.97;2.30;;;24.80;93.20;;;;;;5046384;28;20308;-69
2021/08/16 11:10:44;;;;;;;3.45;2.75;;;24.90;92.80;;;;;;5047017;28;20287;-69
2021/08/16 11:13:16;;;;;;;3.35;3.00;;;24.90;93.20;;;;;;5047506;28;20208;-69
2021/08/16 11:15:43;;;;;;;3.60;2.58;;;24.70;92.50;;;;;;5047562;28;20216;-70
2021/08/16 11:18:13;;;;;;;5.03;2.63;;;24.50;92.60;;;;;;5047619;28;20271;-70
2021/08/16 11:20:40;;;;;;;5.75;2.55;;;24.60;92.80;;;;;;5047550;28;20188;-70
2021/08/16 11:23:06;;;;;;;3.20;2.55;;;24.80;92.90;;;;;;5049831;28;20250;-70
2021/08/16 11:25:33;;;;;;;3.30;2.60;;;24.90;92.70;;;;;;5051186;28;20625;-71
2021/08/16 11:28:01;;;;;;;6.43;2.83;;;24.90;92.90;;;;;;5051033;28;20291;-70
2021/08/16 11:30:29;;;;;;;2.83;2.60;;;25.10;92.50;;;;;;5051120;28;20204;-71
2021/08/16 11:32:56;;;;;;;2.55;2.35;;;24.90;92.00;;;;;;5051070;28;20236;-71
2021/08/16 11:35:26;;;;;;;2.72;2.53;;;24.80;92.40;;;;;;5050901;28;20208;-70
2021/08/16 11:37:55;;;;;;;4.97;2.85;;;24.60;92.60;;;;;;5050665;28;20260;-70
2021/08/16 11:40:21;;;;;;;2.85;2.53;;;24.70;92.50;;;;;;5050988;28;20204;-70
2021/08/16 11:42:48;;;;;;;4.43;2.40;;;24.80;92.40;;;;;;5050829;28;20250;-70
2021/08/16 11:45:17;;;;;;;3.67;2.47;;;24.90;91.80;;;;;;5050705;28;20204;-70
2021/08/16 11:47:45;;;;;;;2.45;2.22;;;24.90;91.70;;;;;;5050683;28;20258;-70
2021/08/16 11:50:13;;;;;;;3.78;2.42;;;24.70;91.30;;;;;;5050798;28;20212;-70
2021/08/16 11:52:42;;;;;;;3.13;2.60;;;24.70;91.80;;;;;;5050731;28;20209;-70
2021/08/16 11:55:10;;;;;;;2.72;2.40;;;24.90;92.30;;;;;;5050427;28;20212;-70
2021/08/16 11:57:38;;;;;;;4.50;2.88;;;24.90;92.10;;;;;;5050641;28;20200;-70
2021/08/16 12:00:07;;;;;;;3.92;2.50;;;24.80;92.60;;;;;;5049757;28;20745;-70
2021/08/16 12:02:36;;;;;;;4.78;2.50;;;24.80;92.80;;;;;;5050438;28;20956;-70
2021/08/16 12:05:03;;;;;;;4.18;2.42;;;24.80;92.30;;;;;;5050512;28;20270;-71
2021/08/16 12:07:30;;;;;;;4.80;2.70;;;24.70;92.70;;;;;;5050198;28;20663;-70
2021/08/16 12:09:59;;;;;;;3.45;2.55;;;24.80;93.00;;;;;;5050299;28;20226;-70
2021/08/16 12:12:29;;;;;;;3.08;2.53;;;24.80;93.00;;;;;;5050290;28;20655;-71
2021/08/16 12:15:04;;;;;;;2.78;2.58;;;24.80;92.50;;;;;;5049860;28;20593;-71
2021/08/16 12:17:31;;;;;;;4.88;2.42;;;24.60;92.20;;;;;;5050464;28;20203;-71
2021/08/16 12:20:03;;;;;;;5.43;2.53;;;24.60;92.30;;;;;;5050152;28;20321;-71
2021/08/16 12:22:30;;;;;;;3.20;2.35;;;24.40;92.60;;;;;;5050200;28;20207;-70
2021/08/16 12:25:07;;;;;;;4.55;2.75;;;24.30;92.80;;;;;;5050101;28;20243;-70
2021/08/16 12:27:34;;;;;;;3.70;2.50;;;24.40;93.30;;;;;;5047561;28;20262;-70
2021/08/16 12:30:01;;;;;;;5.43;2.75;;;24.50;93.40;;;;;;5026192;28;20212;-70
2021/08/16 12:32:30;;;;;;;4.63;2.55;;;24.40;93.40;;;;;;5026207;28;20630;-71
2021/08/16 12:34:58;;;;;;;4.40;2.60;;;24.70;93.50;;;;;;5025900;28;20236;-70
2021/08/16 12:37:26;;;;;;;2.63;2.28;;;24.90;93.30;;;;;;5044648;28;20624;-70
2021/08/16 12:40:04;;;;;;;2.40;2.20;;;25.00;92.90;;;;;;5041771;28;20236;-70
2021/08/16 12:42:32;;;;;;;3.72;2.33;;;24.90;92.30;;;;;;5046374;28;20204;-70
2021/08/16 12:45:01;;;;;;;6.85;2.70;;;24.60;92.50;;;;;;5045847;28;20219;-70
2021/08/16 12:47:31;;;;;;;2.72;2.42;;;24.70;92.40;;;;;;5046053;28;20204;-71
2021/08/16 12:49:58;;;;;;;5.72;2.80;;;24.80;92.20;;;;;;5046132;28;20204;-70